createdAt,value
2018-07-14T00:02:24.666Z,101250.00
2018-07-14T00:04:53.942Z,101250.00
2018-07-14T00:07:23.366Z,101253.00
2018-07-14T00:09:52.846Z,101249.00
2018-07-14T00:12:22.172Z,101257.00
2018-07-14T00:14:51.641Z,101246.00
2018-07-14T00:17:20.939Z,101247.00
2018-07-14T00:19:50.245Z,101241.00
2018-07-14T00:22:21.558Z,101242.00
2018-07-14T00:24:50.885Z,101246.00
2018-07-14T00:27:20.179Z,101246.00
2018-07-14T00:29:49.376Z,101247.00
2018-07-14T00:32:18.557Z,101244.00
2018-07-14T00:34:47.760Z,101241.00
2018-07-14T00:37:17.046Z,101253.00
2018-07-14T00:39:46.218Z,101244.00
2018-07-14T00:42:16.190Z,101240.00
2018-07-14T00:44:45.526Z,101240.00
2018-07-14T00:47:14.929Z,101239.00
2018-07-14T00:49:44.500Z,101248.00
2018-07-14T00:52:13.644Z,101241.00
2018-07-14T00:54:42.920Z,101235.00
2018-07-14T00:57:12.069Z,101233.00
2018-07-14T00:59:41.368Z,101237.00
2018-07-14T01:02:10.721Z,101242.00
2018-07-14T01:04:39.751Z,101237.00
2018-07-14T01:07:08.996Z,101242.00
2018-07-14T01:09:38.280Z,101239.00
2018-07-14T01:12:07.634Z,101236.00
2018-07-14T01:14:36.852Z,101232.00
2018-07-14T01:17:06.214Z,101226.00
2018-07-14T01:19:35.476Z,101227.00
2018-07-14T01:22:04.904Z,101234.00
2018-07-14T01:24:34.262Z,101227.00
2018-07-14T01:27:03.485Z,101234.00
2018-07-14T01:29:32.711Z,101234.00
2018-07-14T01:32:02.900Z,101229.00
2018-07-14T01:34:32.045Z,101237.00
2018-07-14T01:37:01.217Z,101230.00
2018-07-14T01:39:30.369Z,101228.00
2018-07-14T01:41:59.599Z,101233.00
2018-07-14T01:44:28.715Z,101227.00
2018-07-14T01:46:58.010Z,101225.00
2018-07-14T01:49:27.243Z,101226.00
2018-07-14T01:51:56.503Z,101227.00
2018-07-14T01:54:25.631Z,101226.00
2018-07-14T01:56:54.740Z,101222.00
2018-07-14T01:59:30.499Z,101223.00
2018-07-14T02:01:59.726Z,101226.00
2018-07-14T02:04:28.955Z,101234.00
2018-07-14T02:06:58.400Z,101234.00
2018-07-14T02:09:27.633Z,101233.00
2018-07-14T02:11:56.733Z,101235.00
2018-07-14T02:14:25.909Z,101232.00
2018-07-14T02:16:54.871Z,101235.00
2018-07-14T02:19:23.990Z,101241.00
2018-07-14T02:21:53.114Z,101235.00
2018-07-14T02:24:22.441Z,101239.00
2018-07-14T02:26:51.607Z,101228.00
2018-07-14T02:29:20.775Z,101237.00
2018-07-14T02:31:50.053Z,101236.00
2018-07-14T02:34:19.311Z,101237.00
2018-07-14T02:36:48.641Z,101235.00
2018-07-14T02:39:17.942Z,101230.00
2018-07-14T02:41:47.145Z,101230.00
2018-07-14T02:44:16.477Z,101233.00
2018-07-14T02:46:45.736Z,101227.00
2018-07-14T02:49:16.251Z,101228.00
2018-07-14T02:51:45.637Z,101220.00
2018-07-14T02:54:15.411Z,101216.00
2018-07-14T02:56:44.682Z,101219.00
2018-07-14T02:59:13.894Z,101218.00
2018-07-14T03:01:43.028Z,101222.00
2018-07-14T03:04:12.237Z,101226.00
2018-07-14T03:06:41.389Z,101220.00
2018-07-14T03:09:10.655Z,101203.00
2018-07-14T03:11:39.821Z,101222.00
2018-07-14T03:14:08.948Z,101222.00
2018-07-14T03:16:38.148Z,101217.00
2018-07-14T03:19:07.305Z,101224.00
2018-07-14T03:21:36.505Z,101226.00
2018-07-14T03:24:05.823Z,101227.00
2018-07-14T03:26:35.022Z,101228.00
2018-07-14T03:29:03.971Z,101218.00
2018-07-14T03:31:33.100Z,101222.00
2018-07-14T03:34:02.348Z,101231.00
2018-07-14T03:36:31.555Z,101230.00
2018-07-14T03:39:00.830Z,101232.00
2018-07-14T03:41:30.057Z,101229.00
2018-07-14T03:43:59.297Z,101231.00
2018-07-14T03:46:28.519Z,101233.00
2018-07-14T03:48:57.806Z,101238.00
2018-07-14T03:51:27.024Z,101235.00
2018-07-14T03:53:56.346Z,101227.00
2018-07-14T03:56:25.517Z,101236.00
2018-07-14T03:58:54.698Z,101236.00
2018-07-14T04:01:23.816Z,101233.00
2018-07-14T04:03:53.078Z,101228.00
2018-07-14T04:06:22.285Z,101231.00
2018-07-14T04:08:51.471Z,101225.00
2018-07-14T04:11:20.604Z,101224.00
2018-07-14T04:13:49.786Z,101229.00
2018-07-14T04:16:18.938Z,101231.00
2018-07-14T04:18:48.105Z,101236.00
2018-07-14T04:21:17.285Z,101237.00
2018-07-14T04:23:46.618Z,101227.00
2018-07-14T04:26:15.507Z,101229.00
2018-07-14T04:28:44.661Z,101222.00
2018-07-14T04:31:13.851Z,101226.00
2018-07-14T04:33:43.050Z,101231.00
2018-07-14T04:36:12.335Z,101224.00
2018-07-14T04:38:41.697Z,101222.00
2018-07-14T04:41:10.920Z,101226.00
2018-07-14T04:43:40.637Z,101225.00
2018-07-14T04:46:10.070Z,101227.00
2018-07-14T04:48:39.582Z,101233.00
2018-07-14T04:51:09.071Z,101234.00
2018-07-14T04:53:38.551Z,101236.00
2018-07-14T04:56:07.870Z,101227.00
2018-07-14T04:58:37.137Z,101226.00
2018-07-14T05:01:06.429Z,101226.00
2018-07-14T05:03:35.595Z,101226.00
2018-07-14T05:06:04.738Z,101233.00
2018-07-14T05:08:33.895Z,101229.00
2018-07-14T05:11:02.985Z,101232.00
2018-07-14T05:13:32.185Z,101222.00
2018-07-14T05:16:01.336Z,101225.00
2018-07-14T05:18:30.644Z,101226.00
2018-07-14T05:20:59.850Z,101229.00
2018-07-14T05:23:28.951Z,101227.00
2018-07-14T05:25:58.104Z,101236.00
2018-07-14T05:28:27.290Z,101235.00
2018-07-14T05:30:56.387Z,101236.00
2018-07-14T05:33:25.582Z,101239.00
2018-07-14T05:35:54.792Z,101239.00
2018-07-14T05:38:23.906Z,101251.00
2018-07-14T05:40:53.057Z,101249.00
2018-07-14T05:43:22.523Z,101250.00
2018-07-14T05:45:52.025Z,101244.00
2018-07-14T05:48:21.229Z,101241.00
2018-07-14T05:50:50.488Z,101215.00
2018-07-14T05:53:19.802Z,101248.00
2018-07-14T05:55:49.546Z,101252.00
2018-07-14T05:58:19.517Z,101253.00
2018-07-14T06:00:48.778Z,101257.00
2018-07-14T06:03:18.180Z,101257.00
2018-07-14T06:05:47.546Z,101251.00
2018-07-14T06:08:16.795Z,101257.00
2018-07-14T06:10:45.968Z,101263.00
2018-07-14T06:13:15.215Z,101257.00
2018-07-14T06:15:44.350Z,101265.00
2018-07-14T06:18:13.495Z,101256.00
2018-07-14T06:20:42.786Z,101265.00
2018-07-14T06:23:11.969Z,101267.00
2018-07-14T06:25:41.159Z,101269.00
2018-07-14T06:28:10.123Z,101263.00
2018-07-14T06:30:39.278Z,101267.00
2018-07-14T06:33:08.445Z,101270.00
2018-07-14T06:35:37.762Z,101274.00
2018-07-14T06:38:07.110Z,101275.00
2018-07-14T06:40:36.274Z,101273.00
2018-07-14T06:43:05.920Z,101276.00
2018-07-14T06:45:35.058Z,101277.00
2018-07-14T06:48:04.284Z,101275.00
2018-07-14T06:50:33.412Z,101270.00
2018-07-14T06:53:02.610Z,101279.00
2018-07-14T06:55:31.802Z,101275.00
2018-07-14T06:58:02.205Z,101281.00
2018-07-14T07:00:31.401Z,101298.00
2018-07-14T07:03:00.598Z,101287.00
2018-07-14T07:05:29.998Z,101283.00
2018-07-14T07:07:59.344Z,101291.00
2018-07-14T07:10:28.641Z,101287.00
2018-07-14T07:12:57.843Z,101291.00
2018-07-14T07:15:27.510Z,101293.00
2018-07-14T07:17:56.688Z,101294.00
2018-07-14T07:20:25.930Z,101299.00
2018-07-14T07:22:55.179Z,101293.00
2018-07-14T07:25:24.441Z,101299.00
2018-07-14T07:27:53.562Z,101295.00
2018-07-14T07:30:22.680Z,101304.00
2018-07-14T07:32:51.832Z,101306.00
2018-07-14T07:35:20.997Z,101296.00
2018-07-14T07:37:50.195Z,101305.00
2018-07-14T07:40:19.402Z,101303.00
2018-07-14T07:42:48.720Z,101303.00
2018-07-14T07:45:17.721Z,101307.00
2018-07-14T07:47:46.881Z,101315.00
2018-07-14T07:50:15.976Z,101314.00
2018-07-14T07:52:45.165Z,101310.00
2018-07-14T07:55:14.330Z,101312.00
2018-07-14T07:57:43.818Z,101310.00
2018-07-14T08:00:13.211Z,101315.00
2018-07-14T08:02:42.460Z,101309.00
2018-07-14T08:05:11.916Z,101312.00
2018-07-14T08:07:41.263Z,101311.00
2018-07-14T08:10:10.564Z,101317.00
2018-07-14T08:12:40.155Z,101310.00
2018-07-14T08:15:09.389Z,101310.00
2018-07-14T08:17:38.623Z,101313.00
2018-07-14T08:20:07.628Z,101311.00
2018-07-14T08:22:37.126Z,101308.00
2018-07-14T08:25:06.482Z,101312.00
2018-07-14T08:27:35.644Z,101312.00
2018-07-14T08:30:05.228Z,101308.00
2018-07-14T08:32:34.434Z,101316.00
2018-07-14T08:35:03.654Z,101311.00
2018-07-14T08:37:32.778Z,101317.00
2018-07-14T08:40:01.898Z,101318.00
2018-07-14T08:42:31.051Z,101318.00
2018-07-14T08:45:00.351Z,101317.00
2018-07-14T08:47:29.424Z,101319.00
2018-07-14T08:49:58.620Z,101313.00
2018-07-14T08:52:27.835Z,101312.00
2018-07-14T08:54:58.561Z,101309.00
2018-07-14T08:57:27.680Z,101308.00
2018-07-14T08:59:56.861Z,101313.00
2018-07-14T09:02:26.008Z,101308.00
2018-07-14T09:04:55.189Z,101302.00
2018-07-14T09:07:24.326Z,101312.00
2018-07-14T09:09:53.888Z,101309.00
2018-07-14T09:12:23.099Z,101303.00
2018-07-14T09:14:52.477Z,101309.00
2018-07-14T09:17:21.892Z,101308.00
2018-07-14T09:19:51.162Z,101316.00
2018-07-14T09:22:20.645Z,101316.00
2018-07-14T09:24:50.129Z,101315.00
2018-07-14T09:27:19.547Z,101316.00
2018-07-14T09:29:49.197Z,101307.00
2018-07-14T09:32:18.539Z,101315.00
2018-07-14T09:34:47.649Z,101315.00
2018-07-14T09:37:16.873Z,101312.00
2018-07-14T09:39:46.173Z,101316.00
2018-07-14T09:42:15.316Z,101308.00
2018-07-14T09:44:44.599Z,101306.00
2018-07-14T09:47:13.650Z,101306.00
2018-07-14T09:49:42.726Z,101306.00
2018-07-14T09:52:12.422Z,101310.00
2018-07-14T09:54:45.954Z,101307.00
2018-07-14T09:57:15.064Z,101312.00
2018-07-14T09:59:44.208Z,101313.00
2018-07-14T10:02:14.377Z,101306.00
2018-07-14T10:04:43.568Z,101306.00
2018-07-14T10:07:12.706Z,101307.00
2018-07-14T10:09:41.981Z,101302.00
2018-07-14T10:12:11.409Z,101306.00
2018-07-14T10:14:40.732Z,101305.00
2018-07-14T10:17:09.916Z,101304.00
2018-07-14T10:19:38.925Z,101305.00
2018-07-14T10:22:08.230Z,101303.00
2018-07-14T10:24:37.845Z,101304.00
2018-07-14T10:27:07.034Z,101308.00
2018-07-14T10:29:36.353Z,101303.00
2018-07-14T10:32:06.242Z,101304.00
2018-07-14T10:34:35.741Z,101306.00
2018-07-14T10:37:05.379Z,101308.00
2018-07-14T10:39:34.725Z,101314.00
2018-07-14T10:42:04.385Z,101322.00
2018-07-14T10:44:35.284Z,101313.00
2018-07-14T10:47:04.938Z,101304.00
2018-07-14T10:49:34.423Z,101309.00
2018-07-14T10:52:04.489Z,101312.00
2018-07-14T10:54:34.598Z,101311.00
2018-07-14T10:57:04.404Z,101309.00
2018-07-14T10:59:33.773Z,101306.00
2018-07-14T11:02:03.279Z,101313.00
2018-07-14T11:04:32.580Z,101308.00
2018-07-14T11:07:02.021Z,101306.00
2018-07-14T11:09:31.165Z,101306.00
2018-07-14T11:12:00.532Z,101298.00
2018-07-14T11:14:29.951Z,101299.00
2018-07-14T11:16:59.176Z,101304.00
2018-07-14T11:19:28.445Z,101304.00
2018-07-14T11:21:57.625Z,101301.00
2018-07-14T11:24:26.897Z,101308.00
2018-07-14T11:26:56.102Z,101304.00
2018-07-14T11:29:25.294Z,101281.00
2018-07-14T11:31:54.455Z,101302.00
2018-07-14T11:34:23.669Z,101297.00
2018-07-14T11:36:52.836Z,101298.00
2018-07-14T11:39:22.066Z,101304.00
2018-07-14T11:41:51.540Z,101303.00
2018-07-14T11:44:20.792Z,101300.00
2018-07-14T11:46:49.949Z,101296.00
2018-07-14T11:49:19.446Z,101297.00
2018-07-14T11:51:49.035Z,101292.00
2018-07-14T11:54:18.551Z,101291.00
2018-07-14T11:56:47.884Z,101292.00
2018-07-14T11:59:17.155Z,101284.00
2018-07-14T12:01:46.607Z,101284.00
2018-07-14T12:04:16.061Z,101277.00
2018-07-14T12:06:46.439Z,101271.00
2018-07-14T12:09:15.887Z,101271.00
2018-07-14T12:11:48.303Z,101278.00
2018-07-14T12:14:17.871Z,101269.00
2018-07-14T12:16:47.369Z,101274.00
2018-07-14T12:19:16.911Z,101264.00
2018-07-14T12:21:46.201Z,101272.00
2018-07-14T12:24:15.391Z,101257.00
2018-07-14T12:26:44.654Z,101251.00
2018-07-14T12:29:14.022Z,101249.00
2018-07-14T12:31:43.228Z,101246.00
2018-07-14T12:34:14.205Z,101235.00
2018-07-14T12:36:43.426Z,101250.00
2018-07-14T12:39:12.687Z,101241.00
2018-07-14T12:41:41.938Z,101244.00
2018-07-14T12:44:11.161Z,101242.00
2018-07-14T12:46:40.335Z,101238.00
2018-07-14T12:49:09.563Z,101239.00
2018-07-14T12:51:39.042Z,101242.00
2018-07-14T12:54:08.284Z,101232.00
2018-07-14T12:56:37.583Z,101235.00
2018-07-14T12:59:07.233Z,101228.00
2018-07-14T13:01:36.516Z,101236.00
2018-07-14T13:04:05.904Z,101235.00
2018-07-14T13:06:35.256Z,101229.00
2018-07-14T13:09:04.999Z,101228.00
2018-07-14T13:11:34.393Z,101231.00
2018-07-14T13:14:03.798Z,101223.00
2018-07-14T13:16:34.427Z,101220.00
2018-07-14T13:19:04.147Z,101225.00
2018-07-14T13:21:34.006Z,101233.00
2018-07-14T13:24:03.292Z,101228.00
2018-07-14T13:26:33.480Z,101221.00
2018-07-14T13:29:02.968Z,101219.00
2018-07-14T13:31:32.241Z,101218.00
2018-07-14T13:34:01.886Z,101220.00
2018-07-14T13:36:31.511Z,101216.00
2018-07-14T13:39:01.255Z,101224.00
2018-07-14T13:41:30.524Z,101208.00
2018-07-14T13:43:59.973Z,101220.00
2018-07-14T13:46:29.575Z,101220.00
2018-07-14T13:48:58.769Z,101211.00
2018-07-14T13:51:28.015Z,101212.00
2018-07-14T13:53:57.420Z,101207.00
2018-07-14T13:56:26.765Z,101209.00
2018-07-14T13:58:56.064Z,101197.00
2018-07-14T14:01:25.440Z,101196.00
2018-07-14T14:03:54.876Z,101195.00
2018-07-14T14:06:24.090Z,101195.00
2018-07-14T14:08:53.372Z,101192.00
2018-07-14T14:11:22.919Z,101188.00
2018-07-14T14:13:53.613Z,101194.00
2018-07-14T14:16:22.974Z,101190.00
2018-07-14T14:18:52.281Z,101176.00
2018-07-14T14:21:21.766Z,101186.00
2018-07-14T14:23:50.918Z,101188.00
2018-07-14T14:26:20.245Z,101175.00
2018-07-14T14:28:49.984Z,101169.00
2018-07-14T14:31:19.532Z,101175.00
2018-07-14T14:33:48.727Z,101169.00
2018-07-14T14:36:17.705Z,101164.00
2018-07-14T14:38:46.858Z,101166.00
2018-07-14T14:41:16.195Z,101161.00
2018-07-14T14:43:45.659Z,101163.00
2018-07-14T14:46:15.006Z,101155.00
2018-07-14T14:48:44.982Z,101155.00
2018-07-14T14:51:14.524Z,101153.00
2018-07-14T14:53:43.957Z,101146.00
2018-07-14T14:56:13.361Z,101145.00
2018-07-14T14:58:42.762Z,101143.00
2018-07-14T15:01:12.028Z,101153.00
2018-07-14T15:03:41.254Z,101143.00
2018-07-14T15:06:10.445Z,101143.00
2018-07-14T15:08:39.583Z,101149.00
2018-07-14T15:11:08.741Z,101150.00
2018-07-14T15:13:38.040Z,101148.00
2018-07-14T15:16:07.278Z,101146.00
2018-07-14T15:18:36.417Z,101142.00
2018-07-14T15:21:05.661Z,101139.00
2018-07-14T15:23:35.083Z,101137.00
2018-07-14T15:26:04.489Z,101136.00
2018-07-14T15:28:33.630Z,101133.00
2018-07-14T15:31:02.854Z,101138.00
2018-07-14T15:33:32.004Z,101132.00
2018-07-14T15:36:00.997Z,101133.00
2018-07-14T15:38:30.373Z,101129.00
2018-07-14T15:40:59.665Z,101134.00
2018-07-14T15:43:32.190Z,101135.00
2018-07-14T15:46:01.363Z,101137.00
2018-07-14T15:48:30.695Z,101135.00
2018-07-14T15:51:00.470Z,101134.00
2018-07-14T15:53:29.596Z,101141.00
2018-07-14T15:55:59.079Z,101141.00
2018-07-14T15:58:28.896Z,101138.00
2018-07-14T16:00:58.201Z,101137.00
2018-07-14T16:03:27.287Z,101136.00
2018-07-14T16:05:56.825Z,101137.00
2018-07-14T16:08:26.449Z,101144.00
2018-07-14T16:10:55.811Z,101132.00
2018-07-14T16:13:25.409Z,101131.00
2018-07-14T16:15:54.618Z,101131.00
2018-07-14T16:18:23.743Z,101137.00
2018-07-14T16:20:52.905Z,101132.00
2018-07-14T16:23:22.041Z,101130.00
2018-07-14T16:25:51.460Z,101143.00
2018-07-14T16:28:20.628Z,101137.00
2018-07-14T16:30:50.474Z,101144.00
2018-07-14T16:33:19.555Z,101151.00
2018-07-14T16:35:48.927Z,101140.00
2018-07-14T16:38:17.972Z,101141.00
2018-07-14T16:40:47.609Z,101134.00
2018-07-14T16:43:16.780Z,101138.00
2018-07-14T16:45:45.898Z,101134.00
2018-07-14T16:48:15.102Z,101134.00
2018-07-14T16:50:44.205Z,101132.00
2018-07-14T16:53:13.359Z,101135.00
2018-07-14T16:55:42.507Z,101132.00
2018-07-14T16:58:11.673Z,101130.00
2018-07-14T17:00:40.809Z,101129.00
2018-07-14T17:03:10.168Z,101126.00
2018-07-14T17:05:39.472Z,101132.00
2018-07-14T17:08:09.237Z,101137.00
2018-07-14T17:10:38.736Z,101127.00
2018-07-14T17:13:08.044Z,101123.00
2018-07-14T17:15:37.514Z,101129.00
2018-07-14T17:18:06.968Z,101132.00
2018-07-14T17:20:36.468Z,101142.00
2018-07-14T17:23:06.679Z,101140.00
2018-07-14T17:25:36.107Z,101134.00
2018-07-14T17:28:05.538Z,101136.00
2018-07-14T17:30:34.786Z,101132.00
2018-07-14T17:33:03.973Z,101134.00
2018-07-14T17:35:33.113Z,101127.00
2018-07-14T17:38:02.505Z,101126.00
2018-07-14T17:40:32.690Z,101125.00
2018-07-14T17:43:01.831Z,101117.00
2018-07-14T17:45:31.099Z,101126.00
2018-07-14T17:48:00.277Z,101118.00
2018-07-14T17:50:29.491Z,101123.00
2018-07-14T17:52:58.688Z,101108.00
2018-07-14T17:55:27.888Z,101129.00
2018-07-14T17:57:57.374Z,101111.00
2018-07-14T18:00:26.513Z,101112.00
2018-07-14T18:02:55.798Z,101114.00
2018-07-14T18:05:25.225Z,101109.00
2018-07-14T18:07:54.549Z,101117.00
2018-07-14T18:10:23.784Z,101118.00
2018-07-14T18:12:53.284Z,101119.00
2018-07-14T18:15:23.278Z,101117.00
2018-07-14T18:17:52.489Z,101121.00
2018-07-14T18:20:22.012Z,101107.00
2018-07-14T18:22:52.477Z,101114.00
2018-07-14T18:25:21.887Z,101114.00
2018-07-14T18:27:52.955Z,101113.00
2018-07-14T18:30:23.323Z,101112.00
2018-07-14T18:32:53.201Z,101109.00
2018-07-14T18:35:23.025Z,101110.00
2018-07-14T18:37:52.750Z,101111.00
2018-07-14T18:40:23.246Z,101110.00
2018-07-14T18:42:53.815Z,101114.00
2018-07-14T18:45:23.974Z,101114.00
2018-07-14T18:47:55.434Z,101100.00
2018-07-14T18:50:25.063Z,101110.00
2018-07-14T18:52:54.540Z,101115.00
2018-07-14T18:55:24.519Z,101115.00
2018-07-14T18:57:54.099Z,101119.00
2018-07-14T19:00:23.671Z,101125.00
2018-07-14T19:02:53.286Z,101122.00
2018-07-14T19:05:22.651Z,101129.00
2018-07-14T19:07:52.638Z,101126.00
2018-07-14T19:10:22.449Z,101127.00
2018-07-14T19:12:52.076Z,101131.00
2018-07-14T19:15:21.259Z,101132.00
2018-07-14T19:17:50.614Z,101133.00
2018-07-14T19:20:19.907Z,101145.00
2018-07-14T19:22:49.481Z,101141.00
2018-07-14T19:25:18.706Z,101143.00
2018-07-14T19:27:48.007Z,101146.00
2018-07-14T19:30:17.364Z,101144.00
2018-07-14T19:32:46.547Z,101144.00
2018-07-14T19:35:16.228Z,101136.00
2018-07-14T19:37:45.574Z,101137.00
2018-07-14T19:40:14.827Z,101134.00
2018-07-14T19:42:44.129Z,101141.00
2018-07-14T19:45:14.215Z,101134.00
2018-07-14T19:47:43.612Z,101142.00
2018-07-14T19:50:12.834Z,101144.00
2018-07-14T19:52:42.071Z,101143.00
2018-07-14T19:55:12.480Z,101142.00
2018-07-14T19:57:41.803Z,101146.00
2018-07-14T20:00:11.154Z,101137.00
2018-07-14T20:02:40.551Z,101141.00
2018-07-14T20:05:09.793Z,101134.00
2018-07-14T20:07:39.490Z,101142.00
2018-07-14T20:10:09.353Z,101145.00
2018-07-14T20:12:38.752Z,101140.00
2018-07-14T20:15:08.167Z,101139.00
2018-07-14T20:17:37.809Z,101145.00
2018-07-14T20:20:08.861Z,101144.00
2018-07-14T20:22:38.681Z,101148.00
2018-07-14T20:25:08.215Z,101145.00
2018-07-14T20:27:37.943Z,101144.00
2018-07-14T20:30:07.959Z,101145.00
2018-07-14T20:32:37.753Z,101153.00
2018-07-14T20:35:07.532Z,101154.00
2018-07-14T20:37:37.164Z,101156.00
2018-07-14T20:40:06.843Z,101158.00
2018-07-14T20:42:36.204Z,101153.00
2018-07-14T20:45:06.816Z,101161.00
2018-07-14T20:47:38.172Z,101158.00
2018-07-14T20:50:07.750Z,101158.00
2018-07-14T20:52:37.062Z,101158.00
2018-07-14T20:55:06.486Z,101170.00
2018-07-14T20:57:35.768Z,101156.00
2018-07-14T21:00:05.511Z,101157.00
2018-07-14T21:02:34.777Z,101157.00
2018-07-14T21:05:04.015Z,101153.00
2018-07-14T21:07:33.370Z,101159.00
2018-07-14T21:10:02.701Z,101150.00
2018-07-14T21:12:32.072Z,100995.00
2018-07-14T21:15:01.328Z,101162.00
2018-07-14T21:17:30.447Z,101154.00
2018-07-14T21:19:59.335Z,101163.00
2018-07-14T21:22:28.440Z,101153.00
2018-07-14T21:24:57.321Z,101164.00
2018-07-14T21:27:26.617Z,101161.00
2018-07-14T21:29:56.151Z,101159.00
2018-07-14T21:32:25.389Z,101154.00
2018-07-14T21:34:54.539Z,101159.00
2018-07-14T21:37:23.789Z,101165.00
2018-07-14T21:39:52.981Z,101151.00
2018-07-14T21:42:23.769Z,101164.00
2018-07-14T21:44:53.148Z,101159.00
2018-07-14T21:47:22.789Z,101164.00
2018-07-14T21:49:52.200Z,101167.00
2018-07-14T21:52:21.626Z,101168.00
2018-07-14T21:54:51.203Z,101164.00
2018-07-14T21:57:20.778Z,101169.00
2018-07-14T21:59:50.027Z,101170.00
2018-07-14T22:02:19.243Z,101176.00
2018-07-14T22:04:48.816Z,101168.00
2018-07-14T22:07:18.250Z,101166.00
2018-07-14T22:09:47.285Z,101172.00
2018-07-14T22:12:16.712Z,101161.00
2018-07-14T22:14:45.906Z,101169.00
2018-07-14T22:17:15.086Z,101162.00
2018-07-14T22:19:44.126Z,101170.00
2018-07-14T22:22:13.460Z,101177.00
2018-07-14T22:24:42.466Z,101165.00
2018-07-14T22:27:11.799Z,101164.00
2018-07-14T22:29:41.421Z,101164.00
2018-07-14T22:32:11.454Z,101167.00
2018-07-14T22:34:40.832Z,101164.00
2018-07-14T22:37:10.391Z,101161.00
2018-07-14T22:39:39.873Z,101163.00
2018-07-14T22:42:09.095Z,101166.00
2018-07-14T22:44:38.600Z,101172.00
2018-07-14T22:47:08.058Z,101165.00
2018-07-14T22:49:37.800Z,101166.00
2018-07-14T22:52:07.943Z,101162.00
2018-07-14T22:54:37.391Z,101163.00
2018-07-14T22:57:07.116Z,101168.00
2018-07-14T22:59:36.957Z,101157.00
2018-07-14T23:02:07.237Z,101164.00
2018-07-14T23:04:36.824Z,101157.00
2018-07-14T23:07:06.347Z,101162.00
2018-07-14T23:09:35.640Z,101156.00
2018-07-14T23:12:04.944Z,101159.00
2018-07-14T23:14:35.580Z,101156.00
2018-07-14T23:17:04.969Z,101161.00
2018-07-14T23:19:34.206Z,101161.00
2018-07-14T23:22:03.365Z,101156.00
2018-07-14T23:24:32.638Z,101156.00
2018-07-14T23:27:01.887Z,101157.00
2018-07-14T23:29:31.015Z,101161.00
2018-07-14T23:32:00.290Z,101161.00
2018-07-14T23:34:29.647Z,101152.00
2018-07-14T23:36:58.832Z,101161.00
2018-07-14T23:39:28.457Z,101154.00
2018-07-14T23:41:57.636Z,101147.00
2018-07-14T23:44:26.903Z,101138.00
2018-07-14T23:46:56.074Z,101141.00
2018-07-14T23:49:25.004Z,101147.00
2018-07-14T23:51:54.256Z,101143.00
2018-07-14T23:54:24.421Z,101137.00
2018-07-14T23:56:53.761Z,101130.00
2018-07-14T23:59:23.193Z,101135.00
